createdAt,value
2023-05-09T00:02:18.574Z,51.88
2023-05-09T00:07:18.450Z,52.14
2023-05-09T00:12:17.642Z,52.68
2023-05-09T00:17:17.271Z,52.75
2023-05-09T00:22:16.097Z,52.47
2023-05-09T00:27:15.100Z,53.06
2023-05-09T00:32:14.950Z,53.23
2023-05-09T00:37:14.811Z,52.86
2023-05-09T00:42:14.487Z,53.31
2023-05-09T00:47:14.050Z,53.38
2023-05-09T00:52:13.557Z,53.82
2023-05-09T00:57:12.844Z,54.49
2023-05-09T01:02:12.889Z,54.80
2023-05-09T01:07:23.348Z,54.37
2023-05-09T01:12:37.014Z,54.11
2023-05-09T01:17:52.899Z,55.12
2023-05-09T01:23:09.776Z,54.58
2023-05-09T01:28:20.720Z,54.64
2023-05-09T01:33:23.806Z,54.63
2023-05-09T01:38:30.615Z,54.97
2023-05-09T01:43:35.058Z,55.40
2023-05-09T01:48:37.929Z,56.06
2023-05-09T01:53:39.320Z,57.11
2023-05-09T01:58:41.200Z,56.69
2023-05-09T02:03:43.661Z,56.54
2023-05-09T02:08:44.145Z,56.39
2023-05-09T02:13:43.630Z,56.57
2023-05-09T02:18:43.363Z,56.71
2023-05-09T02:23:43.009Z,57.45
2023-05-09T02:28:45.625Z,58.01
2023-05-09T02:33:48.271Z,58.46
2023-05-09T02:38:49.403Z,57.95
2023-05-09T02:43:48.483Z,58.01
2023-05-09T02:48:47.978Z,58.20
2023-05-09T02:53:47.079Z,57.45
2023-05-09T02:58:51.520Z,58.38
2023-05-09T03:03:51.234Z,59.52
2023-05-09T03:08:52.558Z,59.72
2023-05-09T03:13:52.843Z,59.02
2023-05-09T03:18:52.179Z,59.44
2023-05-09T03:23:51.998Z,58.79
2023-05-09T03:28:51.199Z,58.65
2023-05-09T03:33:51.104Z,59.19
2023-05-09T03:38:50.858Z,58.74
2023-05-09T03:43:51.837Z,59.28
2023-05-09T03:48:51.156Z,59.86
2023-05-09T03:53:50.995Z,60.04
2023-05-09T03:58:51.075Z,59.79
2023-05-09T04:03:52.384Z,60.25
2023-05-09T04:08:52.510Z,60.17
2023-05-09T04:13:52.413Z,60.42
2023-05-09T04:19:00.997Z,60.94
2023-05-09T04:24:01.804Z,61.18
2023-05-09T04:29:10.319Z,61.62
2023-05-09T04:34:09.330Z,61.80
2023-05-09T04:39:08.986Z,62.00
2023-05-09T04:44:09.460Z,62.22
2023-05-09T04:49:11.045Z,62.35
2023-05-09T04:54:12.717Z,63.36
2023-05-09T04:59:13.257Z,63.02
2023-05-09T05:04:12.106Z,63.10
2023-05-09T05:09:12.101Z,62.45
2023-05-09T05:14:11.700Z,62.63
2023-05-09T05:19:12.006Z,62.63
2023-05-09T05:24:11.709Z,61.77
2023-05-09T05:29:13.188Z,62.71
2023-05-09T05:34:12.766Z,61.99
2023-05-09T05:39:15.662Z,61.73
2023-05-09T05:44:15.082Z,61.24
2023-05-09T05:49:14.734Z,60.92
2023-05-09T05:54:16.215Z,60.89
2023-05-09T05:59:16.424Z,60.57
2023-05-09T06:04:15.972Z,59.96
2023-05-09T06:09:15.859Z,59.23
2023-05-09T06:14:15.113Z,58.50
2023-05-09T06:19:14.913Z,58.30
2023-05-09T06:24:27.619Z,57.48
2023-05-09T06:29:31.505Z,56.76
2023-05-09T06:34:31.256Z,55.92
2023-05-09T06:39:30.323Z,54.98
2023-05-09T06:44:30.160Z,54.20
2023-05-09T06:49:29.698Z,53.13
2023-05-09T06:54:31.601Z,52.14
2023-05-09T06:59:32.047Z,51.31
2023-05-09T07:04:32.237Z,48.60
2023-05-09T07:09:30.870Z,45.64
2023-05-09T07:14:30.866Z,39.31
2023-05-09T07:19:30.505Z,40.64
2023-05-09T07:24:31.254Z,38.06
2023-05-09T07:29:31.200Z,37.98
2023-05-09T07:34:30.847Z,36.68
2023-05-09T07:39:30.599Z,36.49
2023-05-09T07:44:30.128Z,34.60
2023-05-09T07:49:28.906Z,33.67
2023-05-09T07:54:28.934Z,32.94
2023-05-09T07:59:28.962Z,31.21
2023-05-09T08:04:28.929Z,31.26
2023-05-09T08:09:28.635Z,31.60
2023-05-09T08:14:30.594Z,32.03
2023-05-09T08:19:30.639Z,31.53
2023-05-09T08:24:29.999Z,31.99
2023-05-09T08:29:30.049Z,30.68
2023-05-09T08:34:31.567Z,30.93
2023-05-09T08:39:30.518Z,30.31
2023-05-09T08:44:32.785Z,29.90
2023-05-09T08:49:33.504Z,29.02
2023-05-09T08:54:33.167Z,29.22
2023-05-09T08:59:35.368Z,29.27
2023-05-09T09:04:39.733Z,28.59
2023-05-09T09:09:45.416Z,28.49
2023-05-09T09:14:50.983Z,28.79
2023-05-09T09:19:56.756Z,29.89
2023-05-09T09:24:56.118Z,29.16
2023-05-09T09:29:55.623Z,28.57
2023-05-09T09:35:08.498Z,28.00
2023-05-09T09:40:12.134Z,28.22
2023-05-09T09:45:19.001Z,28.08
2023-05-09T09:50:23.480Z,27.89
2023-05-09T09:55:24.705Z,27.32
2023-05-09T10:00:33.035Z,27.49
2023-05-09T10:05:38.914Z,28.68
2023-05-09T10:10:40.934Z,26.83
2023-05-09T10:15:53.054Z,27.33
2023-05-09T10:20:53.536Z,27.04
2023-05-09T10:26:10.166Z,26.48
2023-05-09T10:31:17.462Z,26.36
2023-05-09T10:36:20.801Z,25.38
2023-05-09T10:41:22.297Z,26.63
2023-05-09T10:46:25.361Z,26.16
2023-05-09T10:51:29.897Z,25.64
2023-05-09T10:56:33.588Z,24.74
2023-05-09T11:01:39.811Z,25.03
2023-05-09T11:06:52.755Z,24.59
2023-05-09T11:11:59.488Z,24.59
2023-05-09T11:17:08.140Z,22.69
2023-05-09T11:22:17.605Z,23.15
2023-05-09T11:27:28.583Z,23.67
2023-05-09T11:32:44.138Z,25.11
2023-05-09T11:43:08.469Z,25.16
2023-05-09T11:48:14.044Z,25.47
2023-05-09T11:53:15.362Z,23.65
2023-05-09T11:58:15.525Z,24.03
2023-05-09T12:03:16.140Z,24.59
2023-05-09T12:08:17.947Z,23.73
2023-05-09T12:13:19.447Z,23.10
2023-05-09T12:18:19.295Z,23.44
2023-05-09T12:23:20.471Z,22.72
2023-05-09T12:28:21.330Z,20.71
2023-05-09T12:33:20.678Z,22.90
2023-05-09T12:38:25.756Z,23.14
2023-05-09T12:43:24.761Z,22.41
2023-05-09T12:48:26.324Z,22.69
2023-05-09T12:53:39.069Z,21.98
2023-05-09T12:58:39.439Z,21.00
2023-05-09T13:03:39.114Z,22.38
2023-05-09T13:08:38.434Z,18.68
2023-05-09T13:13:39.301Z,18.53
2023-05-09T13:18:38.265Z,21.09
2023-05-09T13:23:38.461Z,19.20
2023-05-09T13:28:37.373Z,20.63
2023-05-09T13:33:36.552Z,17.99
2023-05-09T13:38:41.037Z,17.86
2023-05-09T13:43:42.865Z,19.76
2023-05-09T13:48:42.149Z,19.17
2023-05-09T13:53:41.165Z,19.66
2023-05-09T13:58:40.487Z,17.68
2023-05-09T14:03:39.714Z,17.22
2023-05-09T14:08:39.792Z,17.80
2023-05-09T14:13:39.935Z,17.35
2023-05-09T14:18:39.040Z,19.38
2023-05-09T14:23:38.316Z,18.88
2023-05-09T14:28:38.331Z,18.50
2023-05-09T14:33:37.527Z,17.50
2023-05-09T14:38:37.990Z,16.60
2023-05-09T14:43:37.277Z,14.93
2023-05-09T14:48:37.434Z,15.67
2023-05-09T14:53:40.931Z,15.55
2023-05-09T14:58:40.787Z,15.08
2023-05-09T15:03:41.147Z,13.68
2023-05-09T15:08:40.582Z,15.35
2023-05-09T15:13:40.359Z,13.18
2023-05-09T15:18:43.922Z,13.74
2023-05-09T15:23:43.329Z,13.44
2023-05-09T15:28:44.459Z,12.46
2023-05-09T15:33:44.204Z,12.13
2023-05-09T15:38:48.433Z,13.47
2023-05-09T15:43:49.681Z,13.79
2023-05-09T15:48:49.814Z,12.00
2023-05-09T15:53:50.160Z,12.09
2023-05-09T15:58:49.801Z,10.74
2023-05-09T16:03:49.414Z,10.37
2023-05-09T16:08:50.028Z,11.20
2023-05-09T16:13:49.389Z,10.65
2023-05-09T16:18:48.460Z,10.15
2023-05-09T16:23:48.334Z,10.19
2023-05-09T16:28:48.473Z,10.36
2023-05-09T16:33:48.544Z,10.06
2023-05-09T16:38:48.426Z,10.45
2023-05-09T16:43:48.432Z,10.23
2023-05-09T16:48:47.839Z,9.61
2023-05-09T16:54:02.374Z,9.58
2023-05-09T16:59:10.231Z,10.02
2023-05-09T17:04:10.487Z,10.13
2023-05-09T17:09:10.265Z,10.20
2023-05-09T17:14:10.023Z,10.16
2023-05-09T17:19:09.065Z,10.34
2023-05-09T17:24:10.932Z,10.68
2023-05-09T17:29:10.618Z,10.95
2023-05-09T17:34:10.869Z,11.58
2023-05-09T17:39:11.801Z,12.50
2023-05-09T17:44:11.537Z,13.92
2023-05-09T17:49:14.254Z,14.95
2023-05-09T17:54:16.212Z,15.98
2023-05-09T17:59:17.123Z,17.49
2023-05-09T18:04:17.759Z,18.02
2023-05-09T18:09:17.754Z,19.32
2023-05-09T18:14:17.004Z,20.69
2023-05-09T18:19:16.427Z,21.46
2023-05-09T18:24:17.010Z,22.65
2023-05-09T18:29:17.220Z,23.11
2023-05-09T18:34:16.592Z,23.99
2023-05-09T18:39:15.964Z,24.52
2023-05-09T18:44:15.679Z,24.54
2023-05-09T18:49:14.803Z,25.74
2023-05-09T18:54:16.777Z,26.76
2023-05-09T18:59:18.140Z,26.30
2023-05-09T19:04:17.834Z,26.51
2023-05-09T19:09:18.136Z,27.64
2023-05-09T19:14:17.938Z,28.30
2023-05-09T19:19:17.133Z,29.05
2023-05-09T19:24:16.487Z,28.05
2023-05-09T19:29:16.176Z,28.23
2023-05-09T19:34:16.533Z,30.93
2023-05-09T19:39:16.682Z,31.86
2023-05-09T19:44:16.446Z,32.40
2023-05-09T19:49:18.025Z,33.27
2023-05-09T19:54:17.255Z,32.59
2023-05-09T19:59:17.894Z,33.35
2023-05-09T20:04:21.808Z,33.95
2023-05-09T20:09:23.619Z,33.44
2023-05-09T20:14:27.407Z,33.65
2023-05-09T20:19:27.407Z,33.36
2023-05-09T20:24:27.481Z,33.45
2023-05-09T20:29:31.921Z,33.86
2023-05-09T20:34:32.209Z,35.87
2023-05-09T20:39:33.095Z,35.65
2023-05-09T20:44:32.155Z,35.52
2023-05-09T20:49:32.360Z,35.40
2023-05-09T20:54:32.735Z,36.53
2023-05-09T20:59:33.061Z,36.94
2023-05-09T21:04:32.279Z,37.69
2023-05-09T21:09:31.773Z,39.20
2023-05-09T21:14:32.105Z,39.96
2023-05-09T21:19:42.830Z,39.80
2023-05-09T21:25:18.591Z,39.72
2023-05-09T21:30:20.767Z,40.17
2023-05-09T21:35:22.629Z,41.25
2023-05-09T21:40:23.608Z,40.35
2023-05-09T21:45:23.467Z,40.16
2023-05-09T21:50:23.768Z,40.60
2023-05-09T21:55:26.202Z,40.93
2023-05-09T22:00:25.837Z,40.16
2023-05-09T22:05:28.653Z,40.25
2023-05-09T22:10:28.971Z,40.60
2023-05-09T22:15:29.770Z,40.88
2023-05-09T22:20:31.222Z,41.26
2023-05-09T22:25:34.652Z,41.07
2023-05-09T22:30:35.426Z,41.60
2023-05-09T22:35:35.567Z,41.57
2023-05-09T22:40:34.972Z,41.44
2023-05-09T22:45:35.052Z,40.85
2023-05-09T22:50:35.196Z,40.82
2023-05-09T22:55:34.522Z,41.26
2023-05-09T23:00:34.727Z,41.10
2023-05-09T23:05:36.182Z,41.21
2023-05-09T23:10:35.760Z,42.45
2023-05-09T23:15:36.692Z,41.71
2023-05-09T23:20:37.142Z,42.84
2023-05-09T23:25:36.574Z,42.98
2023-05-09T23:30:35.788Z,43.01
2023-05-09T23:35:36.197Z,44.74
2023-05-09T23:40:36.019Z,42.99
2023-05-09T23:45:35.242Z,44.18
2023-05-09T23:50:34.772Z,43.88
2023-05-09T23:55:34.401Z,43.74
